Lilongwe, Malawi
Current Conditions -  °F | °C
As of 4:00 PM on Wednesday 22 Oct 2014 (Local Time) from FWKI Reporting Station
Clear Clear  
Wind Chill: 82°   Ceiling: Unl
Heat Index: 82°   Visibility: 6mi
Dew Point: 43°   Wind: 12mph
Humidity: 25%   Direction: 90°E
Pressure: 30.09"   Gusts: NA
Location:  13.97°S, 33.8°E
Report Text: FWKI 221400Z 09010KT CAVOK 28/06 Q1019 NOSIG
Loading
Personal Weather Stations






























Interactive Weather Map
Tropical Storm Tracking
New forecast layout! Learn more

10-Day Weather Forecast

Advertisements
Track Severe Weather on mobile